sensor_id;sensor_type;location;lat;lon;timestamp;P1;durP1;ratioP1;P2;durP2;ratioP2
14872;SDS011;7528;48.576;19.122;2022-09-28T00:01:07;9.93;;;8.23;;
14872;SDS011;7528;48.576;19.122;2022-09-28T00:06:14;9.50;;;8.30;;
14872;SDS011;7528;48.576;19.122;2022-09-28T00:11:22;8.77;;;7.60;;
14872;SDS011;7528;48.576;19.122;2022-09-28T00:16:29;11.43;;;10.03;;
14872;SDS011;7528;48.576;19.122;2022-09-28T00:21:33;11.57;;;8.73;;
14872;SDS011;7528;48.576;19.122;2022-09-28T00:26:38;13.57;;;9.90;;
14872;SDS011;7528;48.576;19.122;2022-09-28T00:31:43;16.57;;;10.97;;
14872;SDS011;7528;48.576;19.122;2022-09-28T00:36:46;11.53;;;10.33;;
14872;SDS011;7528;48.576;19.122;2022-09-28T00:41:50;13.43;;;10.50;;
14872;SDS011;7528;48.576;19.122;2022-09-28T00:46:54;15.03;;;10.50;;
14872;SDS011;7528;48.576;19.122;2022-09-28T00:52:02;10.67;;;9.57;;
14872;SDS011;7528;48.576;19.122;2022-09-28T00:57:06;10.77;;;9.47;;
14872;SDS011;7528;48.576;19.122;2022-09-28T01:02:11;10.13;;;8.63;;
14872;SDS011;7528;48.576;19.122;2022-09-28T01:07:13;10.33;;;9.23;;
14872;SDS011;7528;48.576;19.122;2022-09-28T01:12:17;10.47;;;9.47;;
14872;SDS011;7528;48.576;19.122;2022-09-28T01:17:23;10.30;;;9.27;;
14872;SDS011;7528;48.576;19.122;2022-09-28T01:22:36;9.57;;;8.50;;
14872;SDS011;7528;48.576;19.122;2022-09-28T01:27:58;8.63;;;7.83;;
14872;SDS011;7528;48.576;19.122;2022-09-28T01:33:05;9.53;;;8.63;;
14872;SDS011;7528;48.576;19.122;2022-09-28T01:38:14;7.40;;;6.63;;
14872;SDS011;7528;48.576;19.122;2022-09-28T01:43:22;5.87;;;5.27;;
14872;SDS011;7528;48.576;19.122;2022-09-28T01:48:29;6.83;;;5.83;;
14872;SDS011;7528;48.576;19.122;2022-09-28T01:53:36;8.23;;;5.80;;
14872;SDS011;7528;48.576;19.122;2022-09-28T01:58:49;7.90;;;6.10;;
14872;SDS011;7528;48.576;19.122;2022-09-28T02:03:56;6.97;;;6.30;;
14872;SDS011;7528;48.576;19.122;2022-09-28T02:09:06;4.47;;;4.07;;
14872;SDS011;7528;48.576;19.122;2022-09-28T02:14:19;7.30;;;4.53;;
14872;SDS011;7528;48.576;19.122;2022-09-28T02:19:24;7.40;;;6.33;;
14872;SDS011;7528;48.576;19.122;2022-09-28T02:24:30;6.17;;;5.57;;
14872;SDS011;7528;48.576;19.122;2022-09-28T02:29:40;16.10;;;5.40;;
14872;SDS011;7528;48.576;19.122;2022-09-28T02:34:42;5.53;;;4.97;;
14872;SDS011;7528;48.576;19.122;2022-09-28T02:39:45;18.13;;;5.73;;
14872;SDS011;7528;48.576;19.122;2022-09-28T02:44:56;54.40;;;8.07;;
14872;SDS011;7528;48.576;19.122;2022-09-28T02:50:11;6.23;;;4.87;;
14872;SDS011;7528;48.576;19.122;2022-09-28T02:55:23;7.43;;;5.13;;
14872;SDS011;7528;48.576;19.122;2022-09-28T03:00:40;14.67;;;5.30;;
14872;SDS011;7528;48.576;19.122;2022-09-28T03:05:49;11.47;;;5.97;;
14872;SDS011;7528;48.576;19.122;2022-09-28T03:10:58;12.13;;;6.10;;
14872;SDS011;7528;48.576;19.122;2022-09-28T03:16:10;8.40;;;5.63;;
14872;SDS011;7528;48.576;19.122;2022-09-28T03:21:16;10.47;;;6.07;;
14872;SDS011;7528;48.576;19.122;2022-09-28T03:26:19;12.07;;;6.07;;
14872;SDS011;7528;48.576;19.122;2022-09-28T03:31:23;11.47;;;5.63;;
14872;SDS011;7528;48.576;19.122;2022-09-28T03:36:26;12.20;;;5.40;;
14872;SDS011;7528;48.576;19.122;2022-09-28T03:41:28;42.27;;;7.30;;
14872;SDS011;7528;48.576;19.122;2022-09-28T03:46:33;18.07;;;6.07;;
14872;SDS011;7528;48.576;19.122;2022-09-28T03:51:39;8.20;;;4.83;;
14872;SDS011;7528;48.576;19.122;2022-09-28T03:56:42;14.43;;;5.73;;
14872;SDS011;7528;48.576;19.122;2022-09-28T04:01:47;49.33;;;8.93;;
14872;SDS011;7528;48.576;19.122;2022-09-28T04:06:50;21.60;;;6.70;;
14872;SDS011;7528;48.576;19.122;2022-09-28T04:11:52;20.03;;;6.70;;
14872;SDS011;7528;48.576;19.122;2022-09-28T04:16:56;49.73;;;7.87;;
14872;SDS011;7528;48.576;19.122;2022-09-28T04:22:01;36.23;;;9.87;;
14872;SDS011;7528;48.576;19.122;2022-09-28T04:27:04;31.27;;;7.13;;
14872;SDS011;7528;48.576;19.122;2022-09-28T04:32:26;64.57;;;8.93;;
14872;SDS011;7528;48.576;19.122;2022-09-28T04:37:29;73.23;;;10.70;;
14872;SDS011;7528;48.576;19.122;2022-09-28T04:42:32;97.93;;;11.47;;
14872;SDS011;7528;48.576;19.122;2022-09-28T04:47:35;41.27;;;8.00;;
14872;SDS011;7528;48.576;19.122;2022-09-28T04:52:43;116.50;;;14.27;;
14872;SDS011;7528;48.576;19.122;2022-09-28T04:57:46;146.67;;;15.57;;
14872;SDS011;7528;48.576;19.122;2022-09-28T05:02:50;61.97;;;8.63;;
14872;SDS011;7528;48.576;19.122;2022-09-28T05:08:20;101.37;;;12.03;;
14872;SDS011;7528;48.576;19.122;2022-09-28T05:13:23;91.00;;;10.70;;
14872;SDS011;7528;48.576;19.122;2022-09-28T05:18:27;53.47;;;9.00;;
14872;SDS011;7528;48.576;19.122;2022-09-28T05:23:36;110.17;;;13.93;;
14872;SDS011;7528;48.576;19.122;2022-09-28T05:28:39;115.73;;;11.57;;
14872;SDS011;7528;48.576;19.122;2022-09-28T05:33:58;61.70;;;9.70;;
14872;SDS011;7528;48.576;19.122;2022-09-28T05:39:01;27.13;;;5.33;;
14872;SDS011;7528;48.576;19.122;2022-09-28T05:44:04;89.13;;;11.87;;
14872;SDS011;7528;48.576;19.122;2022-09-28T05:49:10;39.20;;;7.70;;
14872;SDS011;7528;48.576;19.122;2022-09-28T05:54:13;33.33;;;6.23;;
14872;SDS011;7528;48.576;19.122;2022-09-28T05:59:19;21.43;;;5.47;;
14872;SDS011;7528;48.576;19.122;2022-09-28T06:04:23;15.97;;;7.70;;
14872;SDS011;7528;48.576;19.122;2022-09-28T06:09:26;33.17;;;7.77;;
14872;SDS011;7528;48.576;19.122;2022-09-28T06:14:46;36.73;;;5.63;;
14872;SDS011;7528;48.576;19.122;2022-09-28T06:19:50;23.60;;;8.13;;
14872;SDS011;7528;48.576;19.122;2022-09-28T06:25:05;25.73;;;8.97;;
14872;SDS011;7528;48.576;19.122;2022-09-28T06:30:08;5.70;;;3.83;;
14872;SDS011;7528;48.576;19.122;2022-09-28T06:35:15;7.20;;;4.10;;
14872;SDS011;7528;48.576;19.122;2022-09-28T06:40:17;16.63;;;6.83;;
14872;SDS011;7528;48.576;19.122;2022-09-28T06:45:21;26.97;;;8.10;;
14872;SDS011;7528;48.576;19.122;2022-09-28T06:50:58;7.30;;;5.63;;
14872;SDS011;7528;48.576;19.122;2022-09-28T06:56:06;7.70;;;5.20;;
14872;SDS011;7528;48.576;19.122;2022-09-28T07:01:09;16.33;;;8.20;;
14872;SDS011;7528;48.576;19.122;2022-09-28T07:06:46;9.10;;;5.70;;
14872;SDS011;7528;48.576;19.122;2022-09-28T07:12:19;8.57;;;5.70;;
14872;SDS011;7528;48.576;19.122;2022-09-28T07:17:34;7.53;;;5.90;;
14872;SDS011;7528;48.576;19.122;2022-09-28T07:22:39;7.05;;;5.60;;
14872;SDS011;7528;48.576;19.122;2022-09-28T07:27:41;6.30;;;5.63;;
14872;SDS011;7528;48.576;19.122;2022-09-28T07:33:11;6.40;;;5.75;;
14872;SDS011;7528;48.576;19.122;2022-09-28T07:38:28;4.60;;;4.20;;
14872;SDS011;7528;48.576;19.122;2022-09-28T07:43:31;4.05;;;3.75;;
14872;SDS011;7528;48.576;19.122;2022-09-28T07:48:33;4.60;;;3.85;;
14872;SDS011;7528;48.576;19.122;2022-09-28T07:53:56;5.78;;;3.30;;
14872;SDS011;7528;48.576;19.122;2022-09-28T07:59:17;3.05;;;2.80;;
14872;SDS011;7528;48.576;19.122;2022-09-28T08:04:38;3.38;;;2.42;;
14872;SDS011;7528;48.576;19.122;2022-09-28T08:09:42;2.22;;;1.90;;
14872;SDS011;7528;48.576;19.122;2022-09-28T08:15:09;1.50;;;1.40;;
14872;SDS011;7528;48.576;19.122;2022-09-28T08:20:26;2.05;;;1.33;;
14872;SDS011;7528;48.576;19.122;2022-09-28T08:25:53;2.25;;;1.60;;
14872;SDS011;7528;48.576;19.122;2022-09-28T08:30:58;1.70;;;1.60;;
14872;SDS011;7528;48.576;19.122;2022-09-28T08:36:04;1.40;;;1.30;;
14872;SDS011;7528;48.576;19.122;2022-09-28T08:41:39;2.17;;;1.33;;
14872;SDS011;7528;48.576;19.122;2022-09-28T08:47:14;2.60;;;1.42;;
14872;SDS011;7528;48.576;19.122;2022-09-28T08:53:02;1.38;;;1.20;;
14872;SDS011;7528;48.576;19.122;2022-09-28T08:58:30;4.13;;;1.40;;
14872;SDS011;7528;48.576;19.122;2022-09-28T09:03:36;1.38;;;1.05;;
14872;SDS011;7528;48.576;19.122;2022-09-28T09:09:09;1.20;;;1.10;;
14872;SDS011;7528;48.576;19.122;2022-09-28T09:14:26;1.42;;;1.17;;
14872;SDS011;7528;48.576;19.122;2022-09-28T09:19:50;1.15;;;1.00;;
14872;SDS011;7528;48.576;19.122;2022-09-28T09:25:06;1.40;;;0.82;;
14872;SDS011;7528;48.576;19.122;2022-09-28T09:30:20;1.15;;;0.90;;
14872;SDS011;7528;48.576;19.122;2022-09-28T09:35:28;0.88;;;0.88;;
14872;SDS011;7528;48.576;19.122;2022-09-28T09:40:58;2.25;;;1.10;;
14872;SDS011;7528;48.576;19.122;2022-09-28T09:46:33;1.45;;;1.00;;
14872;SDS011;7528;48.576;19.122;2022-09-28T09:51:51;1.67;;;0.90;;
14872;SDS011;7528;48.576;19.122;2022-09-28T09:57:00;1.45;;;0.90;;
14872;SDS011;7528;48.576;19.122;2022-09-28T10:02:33;0.80;;;0.80;;
14872;SDS011;7528;48.576;19.122;2022-09-28T10:07:45;1.10;;;1.00;;
14872;SDS011;7528;48.576;19.122;2022-09-28T10:12:52;1.05;;;0.93;;
14872;SDS011;7528;48.576;19.122;2022-09-28T10:17:57;1.10;;;1.10;;
14872;SDS011;7528;48.576;19.122;2022-09-28T10:23:35;1.35;;;1.20;;
14872;SDS011;7528;48.576;19.122;2022-09-28T10:28:39;1.30;;;1.15;;
14872;SDS011;7528;48.576;19.122;2022-09-28T10:33:49;1.20;;;1.10;;
14872;SDS011;7528;48.576;19.122;2022-09-28T10:38:54;0.93;;;0.93;;
14872;SDS011;7528;48.576;19.122;2022-09-28T10:44:04;1.13;;;1.10;;
14872;SDS011;7528;48.576;19.122;2022-09-28T10:49:51;0.85;;;0.85;;
14872;SDS011;7528;48.576;19.122;2022-09-28T10:54:58;0.98;;;0.80;;
14872;SDS011;7528;48.576;19.122;2022-09-28T11:00:01;1.23;;;1.00;;
14872;SDS011;7528;48.576;19.122;2022-09-28T11:05:23;1.10;;;1.00;;
14872;SDS011;7528;48.576;19.122;2022-09-28T11:10:30;1.10;;;1.00;;
14872;SDS011;7528;48.576;19.122;2022-09-28T11:15:42;1.00;;;0.95;;
14872;SDS011;7528;48.576;19.122;2022-09-28T11:21:06;1.02;;;1.02;;
14872;SDS011;7528;48.576;19.122;2022-09-28T11:26:09;2.55;;;0.90;;
14872;SDS011;7528;48.576;19.122;2022-09-28T11:31:12;1.58;;;0.95;;
14872;SDS011;7528;48.576;19.122;2022-09-28T11:36:52;2.05;;;1.30;;
14872;SDS011;7528;48.576;19.122;2022-09-28T11:42:10;1.00;;;0.90;;
14872;SDS011;7528;48.576;19.122;2022-09-28T11:47:29;0.90;;;0.90;;
14872;SDS011;7528;48.576;19.122;2022-09-28T11:52:43;1.40;;;0.90;;
14872;SDS011;7528;48.576;19.122;2022-09-28T11:57:52;1.08;;;0.90;;
14872;SDS011;7528;48.576;19.122;2022-09-28T12:03:04;1.45;;;1.10;;
14872;SDS011;7528;48.576;19.122;2022-09-28T12:08:14;1.38;;;1.20;;
14872;SDS011;7528;48.576;19.122;2022-09-28T12:13:34;1.23;;;1.13;;
14872;SDS011;7528;48.576;19.122;2022-09-28T12:18:40;1.00;;;0.90;;
14872;SDS011;7528;48.576;19.122;2022-09-28T12:23:48;1.25;;;1.15;;
14872;SDS011;7528;48.576;19.122;2022-09-28T12:28:54;1.65;;;0.88;;
14872;SDS011;7528;48.576;19.122;2022-09-28T12:34:01;2.45;;;1.00;;
14872;SDS011;7528;48.576;19.122;2022-09-28T12:39:11;1.40;;;1.05;;
14872;SDS011;7528;48.576;19.122;2022-09-28T12:44:37;1.00;;;0.93;;
14872;SDS011;7528;48.576;19.122;2022-09-28T12:49:58;2.05;;;1.20;;
14872;SDS011;7528;48.576;19.122;2022-09-28T12:55:25;1.75;;;1.00;;
14872;SDS011;7528;48.576;19.122;2022-09-28T13:00:37;2.85;;;1.10;;
14872;SDS011;7528;48.576;19.122;2022-09-28T13:05:56;1.83;;;1.05;;
14872;SDS011;7528;48.576;19.122;2022-09-28T13:11:20;1.30;;;0.80;;
14872;SDS011;7528;48.576;19.122;2022-09-28T13:16:33;2.78;;;1.73;;
14872;SDS011;7528;48.576;19.122;2022-09-28T13:21:42;1.98;;;1.40;;
14872;SDS011;7528;48.576;19.122;2022-09-28T13:26:52;1.17;;;1.08;;
14872;SDS011;7528;48.576;19.122;2022-09-28T13:31:57;1.70;;;1.60;;
14872;SDS011;7528;48.576;19.122;2022-09-28T13:37:19;0.93;;;0.80;;
14872;SDS011;7528;48.576;19.122;2022-09-28T13:48:03;1.98;;;1.75;;
14872;SDS011;7528;48.576;19.122;2022-09-28T13:53:18;1.13;;;1.00;;
14872;SDS011;7528;48.576;19.122;2022-09-28T13:58:28;1.40;;;0.90;;
14872;SDS011;7528;48.576;19.122;2022-09-28T14:14:47;1.20;;;1.10;;
14872;SDS011;7528;48.576;19.122;2022-09-28T14:19:51;2.13;;;0.90;;
14872;SDS011;7528;48.576;19.122;2022-09-28T14:24:59;1.60;;;1.00;;
14872;SDS011;7528;48.576;19.122;2022-09-28T14:30:22;1.33;;;1.20;;
14872;SDS011;7528;48.576;19.122;2022-09-28T14:35:28;1.33;;;1.15;;
14872;SDS011;7528;48.576;19.122;2022-09-28T14:40:50;1.40;;;1.23;;
14872;SDS011;7528;48.576;19.122;2022-09-28T14:46:30;3.08;;;2.03;;
14872;SDS011;7528;48.576;19.122;2022-09-28T14:51:56;2.03;;;1.40;;
14872;SDS011;7528;48.576;19.122;2022-09-28T14:57:09;1.75;;;1.50;;
14872;SDS011;7528;48.576;19.122;2022-09-28T15:02:22;3.85;;;1.70;;
14872;SDS011;7528;48.576;19.122;2022-09-28T15:07:28;2.70;;;1.80;;
14872;SDS011;7528;48.576;19.122;2022-09-28T15:12:43;2.05;;;1.65;;
14872;SDS011;7528;48.576;19.122;2022-09-28T15:17:49;3.58;;;1.60;;
14872;SDS011;7528;48.576;19.122;2022-09-28T15:22:59;1.80;;;1.70;;
14872;SDS011;7528;48.576;19.122;2022-09-28T15:28:12;3.50;;;1.70;;
14872;SDS011;7528;48.576;19.122;2022-09-28T15:33:24;18.05;;;15.25;;
14872;SDS011;7528;48.576;19.122;2022-09-28T15:38:46;1.90;;;1.70;;
14872;SDS011;7528;48.576;19.122;2022-09-28T15:49:30;3.45;;;2.10;;
14872;SDS011;7528;48.576;19.122;2022-09-28T15:54:40;3.22;;;2.20;;
14872;SDS011;7528;48.576;19.122;2022-09-28T15:59:44;2.08;;;1.42;;
14872;SDS011;7528;48.576;19.122;2022-09-28T16:04:58;2.58;;;1.63;;
14872;SDS011;7528;48.576;19.122;2022-09-28T16:10:03;1.70;;;1.45;;
14872;SDS011;7528;48.576;19.122;2022-09-28T16:15:27;4.00;;;3.70;;
14872;SDS011;7528;48.576;19.122;2022-09-28T16:20:35;2.08;;;1.90;;
14872;SDS011;7528;48.576;19.122;2022-09-28T16:25:40;1.65;;;1.55;;
14872;SDS011;7528;48.576;19.122;2022-09-28T16:30:58;2.80;;;2.15;;
14872;SDS011;7528;48.576;19.122;2022-09-28T16:36:03;9.70;;;7.15;;
14872;SDS011;7528;48.576;19.122;2022-09-28T16:41:13;7.32;;;6.03;;
14872;SDS011;7528;48.576;19.122;2022-09-28T16:46:18;21.13;;;11.98;;
14872;SDS011;7528;48.576;19.122;2022-09-28T16:51:24;3.83;;;3.03;;
14872;SDS011;7528;48.576;19.122;2022-09-28T16:56:27;3.50;;;2.80;;
14872;SDS011;7528;48.576;19.122;2022-09-28T17:01:30;2.85;;;2.65;;
14872;SDS011;7528;48.576;19.122;2022-09-28T17:06:34;6.03;;;4.90;;
14872;SDS011;7528;48.576;19.122;2022-09-28T17:11:38;6.28;;;2.92;;
14872;SDS011;7528;48.576;19.122;2022-09-28T17:16:40;31.83;;;18.92;;
14872;SDS011;7528;48.576;19.122;2022-09-28T17:21:44;13.05;;;9.63;;
14872;SDS011;7528;48.576;19.122;2022-09-28T17:26:47;6.90;;;6.00;;
14872;SDS011;7528;48.576;19.122;2022-09-28T17:31:51;5.38;;;4.43;;
14872;SDS011;7528;48.576;19.122;2022-09-28T17:36:55;18.33;;;10.40;;
14872;SDS011;7528;48.576;19.122;2022-09-28T17:41:58;20.98;;;11.68;;
14872;SDS011;7528;48.576;19.122;2022-09-28T17:47:01;27.50;;;15.27;;
14872;SDS011;7528;48.576;19.122;2022-09-28T17:52:04;15.07;;;8.10;;
14872;SDS011;7528;48.576;19.122;2022-09-28T17:57:07;58.80;;;30.38;;
14872;SDS011;7528;48.576;19.122;2022-09-28T18:02:10;29.40;;;15.75;;
14872;SDS011;7528;48.576;19.122;2022-09-28T18:07:14;8.73;;;6.03;;
14872;SDS011;7528;48.576;19.122;2022-09-28T18:12:17;25.80;;;14.50;;
14872;SDS011;7528;48.576;19.122;2022-09-28T18:17:19;38.60;;;24.40;;
14872;SDS011;7528;48.576;19.122;2022-09-28T18:22:23;11.38;;;8.95;;
14872;SDS011;7528;48.576;19.122;2022-09-28T18:27:26;17.33;;;13.57;;
14872;SDS011;7528;48.576;19.122;2022-09-28T18:32:29;8.23;;;6.68;;
14872;SDS011;7528;48.576;19.122;2022-09-28T18:37:35;16.17;;;8.40;;
14872;SDS011;7528;48.576;19.122;2022-09-28T18:42:39;9.15;;;8.10;;
14872;SDS011;7528;48.576;19.122;2022-09-28T18:47:42;12.50;;;10.90;;
14872;SDS011;7528;48.576;19.122;2022-09-28T18:52:46;117.18;;;98.35;;
14872;SDS011;7528;48.576;19.122;2022-09-28T18:57:48;55.40;;;49.67;;
14872;SDS011;7528;48.576;19.122;2022-09-28T19:02:51;7.10;;;5.80;;
14872;SDS011;7528;48.576;19.122;2022-09-28T19:07:56;4.90;;;3.88;;
14872;SDS011;7528;48.576;19.122;2022-09-28T19:12:59;30.92;;;27.42;;
14872;SDS011;7528;48.576;19.122;2022-09-28T19:18:01;6.90;;;6.15;;
14872;SDS011;7528;48.576;19.122;2022-09-28T19:23:05;11.93;;;10.68;;
14872;SDS011;7528;48.576;19.122;2022-09-28T19:28:08;97.70;;;71.57;;
14872;SDS011;7528;48.576;19.122;2022-09-28T19:33:10;8.07;;;5.18;;
14872;SDS011;7528;48.576;19.122;2022-09-28T19:38:14;8.40;;;6.10;;
14872;SDS011;7528;48.576;19.122;2022-09-28T19:43:16;10.20;;;9.30;;
14872;SDS011;7528;48.576;19.122;2022-09-28T19:48:23;9.27;;;8.38;;
14872;SDS011;7528;48.576;19.122;2022-09-28T19:53:29;6.63;;;5.95;;
14872;SDS011;7528;48.576;19.122;2022-09-28T19:58:33;62.50;;;46.55;;
14872;SDS011;7528;48.576;19.122;2022-09-28T20:03:37;4.28;;;3.45;;
14872;SDS011;7528;48.576;19.122;2022-09-28T20:08:41;2.58;;;2.35;;
14872;SDS011;7528;48.576;19.122;2022-09-28T20:13:43;3.30;;;3.00;;
14872;SDS011;7528;48.576;19.122;2022-09-28T20:18:46;3.45;;;2.30;;
14872;SDS011;7528;48.576;19.122;2022-09-28T20:23:51;5.53;;;3.10;;
14872;SDS011;7528;48.576;19.122;2022-09-28T20:28:55;3.35;;;2.63;;
14872;SDS011;7528;48.576;19.122;2022-09-28T20:33:58;3.53;;;3.03;;
14872;SDS011;7528;48.576;19.122;2022-09-28T20:39:02;2.97;;;2.42;;
14872;SDS011;7528;48.576;19.122;2022-09-28T20:44:05;2.47;;;2.28;;
14872;SDS011;7528;48.576;19.122;2022-09-28T20:49:09;23.08;;;13.90;;
14872;SDS011;7528;48.576;19.122;2022-09-28T20:54:12;3.60;;;2.80;;
14872;SDS011;7528;48.576;19.122;2022-09-28T20:59:15;29.20;;;15.38;;
14872;SDS011;7528;48.576;19.122;2022-09-28T21:04:17;54.45;;;29.80;;
14872;SDS011;7528;48.576;19.122;2022-09-28T21:09:21;7.00;;;4.70;;
14872;SDS011;7528;48.576;19.122;2022-09-28T21:14:24;3.78;;;2.60;;
14872;SDS011;7528;48.576;19.122;2022-09-28T21:19:27;33.22;;;21.65;;
14872;SDS011;7528;48.576;19.122;2022-09-28T21:24:31;14.07;;;9.15;;
14872;SDS011;7528;48.576;19.122;2022-09-28T21:29:33;5.15;;;4.43;;
14872;SDS011;7528;48.576;19.122;2022-09-28T21:34:36;4.03;;;3.63;;
14872;SDS011;7528;48.576;19.122;2022-09-28T21:39:40;5.78;;;4.55;;
14872;SDS011;7528;48.576;19.122;2022-09-28T21:44:43;4.25;;;3.85;;
14872;SDS011;7528;48.576;19.122;2022-09-28T21:49:45;4.00;;;3.55;;
14872;SDS011;7528;48.576;19.122;2022-09-28T21:54:49;4.22;;;3.45;;
14872;SDS011;7528;48.576;19.122;2022-09-28T21:59:52;4.00;;;3.63;;
14872;SDS011;7528;48.576;19.122;2022-09-28T22:04:54;5.45;;;3.60;;
14872;SDS011;7528;48.576;19.122;2022-09-28T22:09:58;4.25;;;3.70;;
14872;SDS011;7528;48.576;19.122;2022-09-28T22:15:01;3.75;;;3.45;;
14872;SDS011;7528;48.576;19.122;2022-09-28T22:20:04;3.65;;;3.25;;
14872;SDS011;7528;48.576;19.122;2022-09-28T22:25:09;3.47;;;2.80;;
14872;SDS011;7528;48.576;19.122;2022-09-28T22:30:11;4.78;;;2.90;;
14872;SDS011;7528;48.576;19.122;2022-09-28T22:35:14;2.63;;;2.33;;
14872;SDS011;7528;48.576;19.122;2022-09-28T22:40:18;2.50;;;2.25;;
14872;SDS011;7528;48.576;19.122;2022-09-28T22:45:21;4.05;;;2.40;;
14872;SDS011;7528;48.576;19.122;2022-09-28T22:50:23;4.53;;;2.60;;
14872;SDS011;7528;48.576;19.122;2022-09-28T22:55:27;2.63;;;2.42;;
14872;SDS011;7528;48.576;19.122;2022-09-28T23:00:32;3.70;;;2.72;;
14872;SDS011;7528;48.576;19.122;2022-09-28T23:05:35;5.03;;;4.57;;
14872;SDS011;7528;48.576;19.122;2022-09-28T23:10:40;3.30;;;3.00;;
14872;SDS011;7528;48.576;19.122;2022-09-28T23:15:42;3.47;;;2.80;;
14872;SDS011;7528;48.576;19.122;2022-09-28T23:20:54;4.22;;;3.50;;
14872;SDS011;7528;48.576;19.122;2022-09-28T23:26:08;2.63;;;2.42;;
14872;SDS011;7528;48.576;19.122;2022-09-28T23:31:12;7.55;;;6.75;;
14872;SDS011;7528;48.576;19.122;2022-09-28T23:36:16;4.70;;;4.13;;
14872;SDS011;7528;48.576;19.122;2022-09-28T23:41:20;3.28;;;2.70;;
14872;SDS011;7528;48.576;19.122;2022-09-28T23:46:23;2.90;;;2.60;;
14872;SDS011;7528;48.576;19.122;2022-09-28T23:51:26;2.72;;;2.40;;
14872;SDS011;7528;48.576;19.122;2022-09-28T23:56:30;2.65;;;2.45;;
